Terminal Aerodrome Forecast
Issued by NWS

Home | Current Version | Previous Version | Text Only | Print | Product List | Glossary On
Versions: 1 2 3 4 5 6 7 8 9 10 11 12 13
000
FTUS45 KTFX 272300
TAFHLN
TAF
KHLN 272327Z 2800/2824 VRB05KT P6SM SCT090
     FM281200 24010KT P6SM BKN120
     FM281700 28020G30KT P6SM SCT050 BKN080=

USA.gov is the U.S. government's official web portal to all federal, state and local government web resources and services.